createdAt,value
2023-04-03T00:00:07.313Z,8.30
2023-04-03T00:02:53.786Z,7.80
2023-04-03T00:05:20.746Z,7.70
2023-04-03T00:07:47.095Z,8.40
2023-04-03T00:10:14.341Z,6.00
2023-04-03T00:12:40.995Z,4.30
2023-04-03T00:15:07.996Z,4.20
2023-04-03T00:17:34.708Z,5.40
2023-04-03T00:20:02.206Z,5.60
2023-04-03T00:22:29.171Z,6.20
2023-04-03T00:24:55.792Z,4.40
2023-04-03T00:27:22.391Z,6.10
2023-04-03T00:29:48.984Z,6.60
2023-04-03T00:32:16.325Z,9.10
2023-04-03T00:34:43.038Z,7.80
2023-04-03T00:37:09.794Z,7.50
2023-04-03T00:39:37.679Z,9.30
2023-04-03T00:42:04.026Z,7.20
2023-04-03T00:44:33.620Z,6.10
2023-04-03T00:47:00.663Z,6.50
2023-04-03T00:49:28.011Z,9.30
2023-04-03T00:51:54.778Z,6.30
2023-04-03T00:54:21.450Z,5.20
2023-04-03T00:56:48.768Z,5.10
2023-04-03T01:01:42.248Z,6.40
2023-04-03T01:04:28.552Z,7.30
2023-04-03T01:06:56.659Z,7.00
2023-04-03T01:09:23.131Z,7.40
2023-04-03T01:11:50.271Z,3.50
2023-04-03T01:14:17.250Z,8.10
2023-04-03T01:16:43.879Z,4.70
2023-04-03T01:19:16.104Z,9.20
2023-04-03T01:22:03.856Z,6.80
2023-04-03T01:24:39.188Z,7.90
2023-04-03T01:27:07.392Z,8.60
2023-04-03T01:29:34.282Z,4.70
2023-04-03T01:32:01.567Z,7.10
2023-04-03T01:36:55.250Z,6.50
2023-04-03T01:39:22.243Z,7.40
2023-04-03T01:41:49.541Z,5.50
2023-04-03T01:44:16.590Z,6.30
2023-04-03T01:46:43.160Z,7.50
2023-04-03T01:49:10.094Z,6.40
2023-04-03T01:51:36.704Z,4.90
2023-04-03T01:54:03.344Z,6.90
2023-04-03T01:56:30.590Z,8.10
2023-04-03T01:58:58.155Z,5.70
2023-04-03T02:01:26.303Z,10.60
2023-04-03T02:03:53.205Z,4.70
2023-04-03T02:06:20.322Z,4.50
2023-04-03T02:08:46.739Z,9.30
2023-04-03T02:11:13.192Z,7.10
2023-04-03T02:13:39.730Z,8.10
2023-04-03T02:16:07.609Z,6.00
2023-04-03T02:18:34.652Z,10.00
2023-04-03T02:21:01.045Z,5.00
2023-04-03T02:23:27.703Z,6.00
2023-04-03T02:26:03.018Z,12.40
2023-04-03T02:28:30.011Z,7.70
2023-04-03T02:30:56.466Z,7.40
2023-04-03T02:33:22.939Z,7.10
2023-04-03T02:35:53.509Z,7.30
2023-04-03T02:38:21.179Z,10.20
2023-04-03T02:40:47.718Z,8.10
2023-04-03T02:43:14.170Z,6.90
2023-04-03T02:45:40.600Z,7.70
2023-04-03T02:48:07.185Z,5.60
2023-04-03T02:50:33.655Z,5.70
2023-04-03T02:53:00.233Z,7.00
2023-04-03T02:55:26.633Z,7.70
2023-04-03T02:57:53.415Z,5.50
2023-04-03T03:00:20.581Z,5.40
2023-04-03T03:02:47.003Z,7.40
2023-04-03T03:05:13.714Z,7.80
2023-04-03T03:07:40.364Z,6.40
2023-04-03T03:10:07.033Z,5.40
2023-04-03T03:12:33.839Z,8.80
2023-04-03T03:15:01.114Z,6.50
2023-04-03T03:17:28.008Z,5.70
2023-04-03T03:19:54.515Z,7.90
2023-04-03T03:22:20.904Z,6.10
2023-04-03T03:24:47.545Z,8.60
2023-04-03T03:27:14.183Z,5.10
2023-04-03T03:29:40.827Z,7.70
2023-04-03T03:32:07.396Z,5.00
2023-04-03T03:34:33.786Z,7.30
2023-04-03T03:37:00.106Z,7.30
2023-04-03T03:39:27.075Z,4.40
2023-04-03T03:41:53.853Z,7.10
2023-04-03T03:44:20.756Z,6.40
2023-04-03T03:46:47.284Z,6.90
2023-04-03T03:49:13.691Z,7.70
2023-04-03T03:51:41.262Z,6.20
2023-04-03T03:54:08.390Z,6.90
2023-04-03T03:56:34.717Z,6.90
2023-04-03T03:59:01.266Z,7.80
2023-04-03T04:01:27.777Z,6.50
2023-04-03T04:03:57.282Z,8.20
2023-04-03T04:06:23.768Z,6.70
2023-04-03T04:08:50.699Z,12.00
2023-04-03T04:11:17.358Z,6.40
2023-04-03T04:13:44.488Z,6.60
2023-04-03T04:16:11.038Z,7.30
2023-04-03T04:18:37.484Z,7.20
2023-04-03T04:21:03.963Z,6.50
2023-04-03T04:23:30.532Z,5.50
2023-04-03T04:25:56.821Z,10.90
2023-04-03T04:28:23.198Z,7.20
2023-04-03T04:30:50.047Z,4.50
2023-04-03T04:35:44.212Z,8.30
2023-04-03T04:38:10.865Z,5.60
2023-04-03T04:40:38.075Z,9.10
2023-04-03T04:43:04.454Z,8.20
2023-04-03T04:45:31.100Z,13.60
2023-04-03T04:47:57.667Z,10.60
2023-04-03T04:50:24.252Z,7.10
2023-04-03T04:52:50.684Z,8.90
2023-04-03T04:55:17.031Z,8.30
2023-04-03T04:57:43.541Z,7.30
2023-04-03T05:00:10.454Z,6.60
2023-04-03T05:02:37.021Z,6.70
2023-04-03T05:05:05.248Z,6.50
2023-04-03T05:07:32.061Z,3.70
2023-04-03T05:09:58.678Z,5.60
2023-04-03T05:12:25.306Z,4.80
2023-04-03T05:14:51.762Z,6.00
2023-04-03T05:17:18.680Z,8.90
2023-04-03T05:22:11.993Z,8.80
2023-04-03T05:24:38.349Z,8.30
2023-04-03T05:27:05.172Z,10.90
2023-04-03T05:29:31.678Z,8.40
2023-04-03T05:31:58.709Z,5.90
2023-04-03T05:34:25.525Z,7.90
2023-04-03T05:36:52.444Z,6.70
2023-04-03T05:39:20.161Z,8.40
2023-04-03T05:41:46.620Z,7.70
2023-04-03T05:44:13.260Z,7.70
2023-04-03T05:46:40.067Z,9.00
2023-04-03T05:49:07.332Z,6.50
2023-04-03T05:51:35.499Z,9.00
2023-04-03T05:54:25.473Z,8.40
2023-04-03T05:56:52.891Z,7.50
2023-04-03T05:59:20.356Z,7.40
2023-04-03T06:04:14.426Z,7.20
2023-04-03T06:09:08.685Z,7.00
2023-04-03T06:11:36.107Z,6.60
2023-04-03T06:14:03.694Z,12.40
2023-04-03T06:16:30.463Z,5.70
2023-04-03T06:18:57.968Z,8.40
2023-04-03T06:21:25.140Z,8.80
2023-04-03T06:23:52.095Z,8.30
2023-04-03T06:26:18.783Z,6.10
2023-04-03T06:28:45.235Z,6.40
2023-04-03T06:31:12.177Z,7.00
2023-04-03T06:33:39.050Z,6.90
2023-04-03T06:36:06.817Z,6.40
2023-04-03T06:38:34.575Z,12.20
2023-04-03T06:41:01.219Z,8.60
2023-04-03T06:43:27.919Z,8.10
2023-04-03T06:45:54.447Z,8.00
2023-04-03T06:48:21.532Z,7.10
2023-04-03T06:50:47.978Z,6.90
2023-04-03T06:53:15.106Z,6.80
2023-04-03T06:55:42.708Z,6.90
2023-04-03T06:58:10.495Z,9.60
2023-04-03T07:00:37.460Z,6.20
2023-04-03T07:03:04.063Z,5.90
2023-04-03T07:05:31.261Z,7.40
2023-04-03T07:07:57.825Z,7.80
2023-04-03T07:10:24.797Z,6.60
2023-04-03T07:12:51.361Z,6.70
2023-04-03T07:15:18.011Z,9.10
2023-04-03T07:17:44.659Z,6.70
2023-04-03T07:20:12.112Z,6.30
2023-04-03T07:22:38.542Z,3.50
2023-04-03T07:25:07.586Z,7.00
2023-04-03T07:27:34.488Z,7.90
2023-04-03T07:30:01.527Z,6.60
2023-04-03T07:32:29.236Z,5.30
2023-04-03T07:34:55.923Z,5.70
2023-04-03T07:37:23.298Z,5.30
2023-04-03T07:39:50.040Z,5.70
2023-04-03T07:42:16.847Z,5.60
2023-04-03T07:44:43.860Z,5.20
2023-04-03T07:47:10.719Z,5.60
2023-04-03T07:49:40.049Z,7.50
2023-04-03T07:52:07.478Z,6.40
2023-04-03T07:54:34.320Z,5.90
2023-04-03T07:57:01.736Z,6.90
2023-04-03T07:59:28.950Z,5.80
2023-04-03T08:01:55.936Z,4.10
2023-04-03T08:04:22.408Z,5.70
2023-04-03T08:06:49.098Z,5.70
2023-04-03T08:09:16.276Z,3.80
2023-04-03T08:11:42.794Z,6.20
2023-04-03T08:14:11.673Z,4.20
2023-04-03T08:16:38.261Z,5.30
2023-04-03T08:19:09.476Z,4.60
2023-04-03T08:21:38.949Z,7.70
2023-04-03T08:24:06.382Z,5.00
2023-04-03T08:26:33.058Z,4.70
2023-04-03T08:28:59.745Z,3.20
2023-04-03T08:31:26.104Z,4.50
2023-04-03T08:33:52.943Z,4.40
2023-04-03T08:36:24.916Z,5.30
2023-04-03T08:38:52.555Z,4.90
2023-04-03T08:41:30.865Z,6.50
2023-04-03T08:44:05.078Z,5.00
2023-04-03T08:46:40.893Z,4.30
2023-04-03T08:49:14.020Z,6.40
2023-04-03T08:51:43.536Z,5.30
2023-04-03T08:54:17.274Z,5.70
2023-04-03T08:56:44.670Z,5.70
2023-04-03T08:59:14.225Z,6.50
2023-04-03T09:01:42.194Z,4.70
2023-04-03T09:04:19.404Z,5.20
2023-04-03T09:09:32.883Z,4.90
2023-04-03T09:12:30.306Z,5.30
2023-04-03T09:14:56.908Z,5.10
2023-04-03T09:17:36.329Z,3.60
2023-04-03T09:20:26.194Z,5.30
2023-04-03T09:22:54.398Z,6.30
2023-04-03T09:25:23.974Z,5.90
2023-04-03T09:27:52.060Z,5.20
2023-04-03T09:30:23.772Z,4.70
2023-04-03T09:32:56.163Z,5.60
2023-04-03T09:35:36.221Z,4.80
2023-04-03T09:38:11.182Z,4.70
2023-04-03T09:40:41.692Z,6.70
2023-04-03T09:43:16.964Z,2.50
2023-04-03T09:45:47.971Z,4.00
2023-04-03T09:48:18.647Z,4.30
2023-04-03T09:50:50.771Z,6.00
2023-04-03T09:53:35.780Z,4.10
2023-04-03T09:56:04.814Z,2.50
2023-04-03T09:58:46.854Z,6.60
2023-04-03T10:01:23.115Z,3.20
2023-04-03T10:04:02.931Z,5.10
2023-04-03T10:06:31.132Z,5.40
2023-04-03T10:09:03.148Z,4.70
2023-04-03T10:11:29.741Z,4.90
2023-04-03T10:13:59.735Z,2.00
2023-04-03T10:16:38.171Z,4.80
2023-04-03T10:19:20.034Z,3.30
2023-04-03T10:21:59.188Z,5.20
2023-04-03T10:24:32.236Z,6.30
2023-04-03T10:27:18.947Z,3.20
2023-04-03T10:29:48.153Z,4.60
2023-04-03T10:32:14.593Z,5.20
2023-04-03T10:34:46.740Z,3.80
2023-04-03T10:37:18.720Z,5.40
2023-04-03T10:39:58.668Z,6.20
2023-04-03T10:42:28.263Z,4.00
2023-04-03T10:45:02.375Z,3.10
2023-04-03T10:47:37.195Z,4.60
2023-04-03T10:50:05.885Z,3.70
2023-04-03T10:52:52.859Z,4.00
2023-04-03T10:55:37.618Z,5.20
2023-04-03T10:58:05.561Z,4.50
2023-04-03T11:00:38.392Z,4.50
2023-04-03T11:03:25.681Z,3.30
2023-04-03T11:05:54.238Z,5.20
2023-04-03T11:08:35.747Z,2.70
2023-04-03T11:11:22.762Z,5.30
2023-04-03T11:13:49.360Z,3.70
2023-04-03T11:16:18.695Z,5.80
2023-04-03T11:18:49.179Z,5.50
2023-04-03T11:21:24.931Z,4.90
2023-04-03T11:23:51.978Z,4.50
2023-04-03T11:26:21.156Z,5.30
2023-04-03T11:28:52.865Z,5.50
2023-04-03T11:31:38.371Z,6.90
2023-04-03T11:34:06.028Z,7.30
2023-04-03T11:36:35.791Z,5.00
2023-04-03T11:39:16.346Z,6.00
2023-04-03T11:41:43.317Z,5.50
2023-04-03T11:44:29.656Z,4.70
2023-04-03T11:46:58.379Z,4.30
2023-04-03T11:49:43.810Z,4.40
2023-04-03T11:52:11.330Z,7.80
2023-04-03T11:54:44.892Z,4.70
2023-04-03T11:57:44.554Z,6.20
2023-04-03T12:00:31.087Z,4.90
2023-04-03T12:02:59.196Z,5.30
2023-04-03T12:05:30.336Z,4.50
2023-04-03T12:08:15.709Z,5.10
2023-04-03T12:10:42.136Z,4.20
2023-04-03T12:13:17.387Z,5.70
2023-04-03T12:15:49.830Z,4.80
2023-04-03T12:18:36.032Z,4.60
2023-04-03T12:21:03.935Z,5.50
2023-04-03T12:23:34.913Z,4.10
2023-04-03T12:26:05.278Z,5.70
2023-04-03T12:28:36.495Z,6.90
2023-04-03T12:31:04.520Z,6.60
2023-04-03T12:33:57.064Z,4.30
2023-04-03T12:36:32.072Z,5.80
2023-04-03T12:39:05.488Z,6.40
2023-04-03T12:41:45.009Z,6.60
2023-04-03T12:44:21.005Z,5.90
2023-04-03T12:46:49.783Z,5.30
2023-04-03T12:49:36.006Z,5.70
2023-04-03T12:52:06.621Z,3.50
2023-04-03T12:54:36.270Z,7.90
2023-04-03T12:57:13.753Z,4.70
2023-04-03T12:59:41.534Z,4.70
2023-04-03T13:02:16.507Z,4.20
2023-04-03T13:04:42.945Z,4.80
2023-04-03T13:07:19.371Z,5.00
2023-04-03T13:09:55.432Z,5.20
2023-04-03T13:12:22.034Z,4.60
2023-04-03T13:14:52.708Z,3.80
2023-04-03T13:17:19.370Z,7.20
2023-04-03T13:19:49.430Z,5.80
2023-04-03T13:22:19.716Z,6.00
2023-04-03T13:24:48.163Z,4.50
2023-04-03T13:27:15.461Z,5.40
2023-04-03T13:29:43.103Z,5.80
2023-04-03T13:34:40.846Z,5.90
2023-04-03T13:37:09.539Z,4.40
2023-04-03T13:39:38.760Z,7.40
2023-04-03T13:42:16.223Z,4.10
2023-04-03T13:44:43.467Z,3.80
2023-04-03T13:49:38.839Z,5.10
2023-04-03T13:52:23.749Z,4.20
2023-04-03T13:54:55.549Z,6.50
2023-04-03T13:57:22.592Z,6.40
2023-04-03T13:59:50.640Z,3.40
2023-04-03T14:02:17.884Z,4.00
2023-04-03T14:07:15.236Z,4.10
2023-04-03T14:09:41.762Z,4.80
2023-04-03T14:12:24.203Z,6.20
2023-04-03T14:14:57.385Z,4.00
2023-04-03T14:17:25.960Z,4.90
2023-04-03T14:19:53.681Z,5.70
2023-04-03T14:22:22.742Z,6.00
2023-04-03T14:24:53.642Z,4.50
2023-04-03T14:27:28.754Z,3.60
2023-04-03T14:29:57.609Z,4.80
2023-04-03T14:32:25.608Z,4.70
2023-04-03T14:34:53.126Z,5.70
2023-04-03T14:37:21.806Z,5.20
2023-04-03T14:39:49.358Z,5.50
2023-04-03T14:42:21.532Z,5.30
2023-04-03T14:44:49.305Z,4.40
2023-04-03T14:47:29.914Z,3.60
2023-04-03T14:49:59.019Z,4.70
2023-04-03T14:52:30.088Z,4.70
2023-04-03T14:54:57.345Z,6.50
2023-04-03T14:59:51.533Z,4.60
2023-04-03T15:02:30.687Z,5.10
2023-04-03T15:04:58.233Z,4.10
2023-04-03T15:09:51.490Z,4.10
2023-04-03T15:12:17.862Z,4.80
2023-04-03T15:14:51.952Z,5.90
2023-04-03T15:17:21.730Z,3.50
2023-04-03T15:19:48.220Z,5.10
2023-04-03T15:22:15.741Z,6.30
2023-04-03T15:24:43.216Z,6.90
2023-04-03T15:27:10.569Z,4.60
2023-04-03T15:29:38.412Z,5.80
2023-04-03T15:32:06.093Z,5.70
2023-04-03T15:34:32.913Z,5.80
2023-04-03T15:36:59.768Z,2.80
2023-04-03T15:39:28.140Z,3.90
2023-04-03T15:41:55.618Z,5.00
2023-04-03T15:44:22.846Z,6.00
2023-04-03T15:46:51.630Z,4.10
2023-04-03T15:49:19.291Z,5.80
2023-04-03T15:51:45.723Z,3.50
2023-04-03T15:54:13.808Z,6.90
2023-04-03T15:56:40.837Z,3.50
2023-04-03T15:59:07.477Z,8.40
2023-04-03T16:01:34.696Z,6.20
2023-04-03T16:06:30.933Z,4.60
2023-04-03T16:08:58.346Z,6.60
2023-04-03T16:13:54.141Z,8.20
2023-04-03T16:16:21.290Z,2.60
2023-04-03T16:18:48.250Z,7.00
2023-04-03T16:23:42.342Z,7.40
2023-04-03T16:28:36.450Z,8.90
2023-04-03T16:31:03.660Z,7.30
2023-04-03T16:33:31.663Z,6.50
2023-04-03T16:35:58.298Z,7.00
2023-04-03T16:38:25.109Z,6.60
2023-04-03T16:40:56.891Z,7.00
2023-04-03T16:43:24.046Z,10.20
2023-04-03T16:45:50.886Z,10.30
2023-04-03T16:50:49.388Z,13.20
2023-04-03T16:53:19.357Z,7.30
2023-04-03T16:55:46.665Z,19.70
2023-04-03T16:58:13.496Z,11.20
2023-04-03T17:00:40.744Z,7.20
2023-04-03T17:03:07.568Z,6.90
2023-04-03T17:05:34.941Z,5.10
2023-04-03T17:08:02.701Z,9.20
2023-04-03T17:10:35.486Z,7.10
2023-04-03T17:13:02.666Z,6.50
2023-04-03T17:15:29.635Z,7.70
2023-04-03T17:17:56.386Z,9.40
2023-04-03T17:22:50.477Z,7.40
2023-04-03T17:27:44.929Z,7.70
2023-04-03T17:30:12.656Z,7.80
2023-04-03T17:32:40.211Z,7.70
2023-04-03T17:35:11.642Z,7.80
2023-04-03T17:37:38.840Z,7.40
2023-04-03T17:42:32.935Z,7.10
2023-04-03T17:45:00.889Z,7.60
2023-04-03T17:47:28.593Z,6.00
2023-04-03T17:49:59.291Z,5.00
2023-04-03T17:52:28.120Z,7.60
2023-04-03T17:54:56.125Z,7.40
2023-04-03T17:57:23.495Z,5.90
2023-04-03T17:59:53.336Z,7.10
2023-04-03T18:02:21.092Z,6.50
2023-04-03T18:04:50.849Z,7.90
2023-04-03T18:07:18.341Z,6.30
2023-04-03T18:09:46.511Z,5.10
2023-04-03T18:12:14.273Z,10.90
2023-04-03T18:14:42.518Z,8.80
2023-04-03T18:19:38.137Z,11.70
2023-04-03T18:22:08.198Z,9.00
2023-04-03T18:24:36.636Z,5.80
2023-04-03T18:27:14.909Z,5.70
2023-04-03T18:29:43.368Z,4.80
2023-04-03T18:32:12.460Z,4.00
2023-04-03T18:34:41.604Z,5.40
2023-04-03T18:37:09.232Z,5.10
2023-04-03T18:39:36.779Z,5.90
2023-04-03T18:46:59.567Z,6.90
2023-04-03T18:49:29.358Z,7.80
2023-04-03T18:51:56.823Z,7.30
2023-04-03T18:54:24.993Z,7.10
2023-04-03T18:59:21.744Z,9.90
2023-04-03T19:01:51.562Z,7.70
2023-04-03T19:06:46.234Z,9.10
2023-04-03T19:09:13.309Z,10.60
2023-04-03T19:11:40.858Z,8.10
2023-04-03T19:14:16.065Z,7.30
2023-04-03T19:16:45.252Z,7.80
2023-04-03T19:19:12.656Z,9.70
2023-04-03T19:21:42.091Z,8.90
2023-04-03T19:24:10.196Z,7.60
2023-04-03T19:26:37.895Z,8.60
2023-04-03T19:29:05.560Z,7.70
2023-04-03T19:31:33.050Z,7.70
2023-04-03T19:38:53.385Z,16.00
2023-04-03T19:41:22.365Z,9.90
2023-04-03T19:43:51.238Z,37.10
2023-04-03T19:46:20.998Z,72.50
2023-04-03T19:48:48.560Z,24.20
2023-04-03T19:51:15.532Z,30.40
2023-04-03T19:53:43.629Z,36.30
2023-04-03T19:56:10.996Z,28.20
2023-04-03T19:58:42.039Z,13.90
2023-04-03T20:01:09.449Z,11.80
2023-04-03T20:03:39.374Z,11.30
2023-04-03T20:06:06.323Z,13.10
2023-04-03T20:08:36.524Z,11.20
2023-04-03T20:11:03.246Z,10.20
2023-04-03T20:13:30.422Z,12.30
2023-04-03T20:16:01.180Z,11.90
2023-04-03T20:18:28.346Z,12.20
2023-04-03T20:20:56.508Z,9.40
2023-04-03T20:23:23.722Z,9.20
2023-04-03T20:26:06.616Z,14.60
2023-04-03T20:28:37.331Z,12.80
2023-04-03T20:31:04.114Z,10.80
2023-04-03T20:33:31.066Z,8.80
2023-04-03T20:35:58.516Z,10.40
2023-04-03T20:38:25.463Z,9.60
2023-04-03T20:40:52.082Z,9.00
2023-04-03T20:43:19.145Z,9.30
2023-04-03T20:45:47.492Z,9.90
2023-04-03T20:48:14.626Z,8.90
2023-04-03T20:55:35.191Z,7.70
2023-04-03T20:58:04.673Z,8.40
2023-04-03T21:00:36.667Z,9.20
2023-04-03T21:03:03.908Z,11.70
2023-04-03T21:05:34.025Z,11.20
2023-04-03T21:08:20.333Z,9.60
2023-04-03T21:11:06.936Z,8.20
2023-04-03T21:13:53.788Z,9.20
2023-04-03T21:16:21.280Z,7.90
2023-04-03T21:19:09.035Z,8.90
2023-04-03T21:21:36.388Z,6.80
2023-04-03T21:26:38.369Z,7.00
2023-04-03T21:29:06.244Z,9.70
2023-04-03T21:31:51.627Z,7.70
2023-04-03T21:34:19.345Z,8.90
2023-04-03T21:36:49.181Z,9.70
2023-04-03T21:39:16.744Z,10.30
2023-04-03T21:41:43.476Z,9.40
2023-04-03T21:44:10.533Z,9.20
2023-04-03T21:46:37.798Z,9.00
2023-04-03T21:49:04.934Z,8.60
2023-04-03T21:51:32.478Z,8.70
2023-04-03T21:54:01.252Z,9.40
2023-04-03T21:56:30.780Z,8.20
2023-04-03T21:58:58.274Z,10.50
2023-04-03T22:01:25.130Z,9.40
2023-04-03T22:03:51.816Z,9.70
2023-04-03T22:06:18.555Z,7.20
2023-04-03T22:08:45.475Z,8.10
2023-04-03T22:11:13.972Z,9.30
2023-04-03T22:13:41.224Z,7.80
2023-04-03T22:16:08.551Z,8.80
2023-04-03T22:18:35.631Z,9.70
2023-04-03T22:21:02.161Z,9.60
2023-04-03T22:23:28.845Z,9.40
2023-04-03T22:25:58.713Z,10.80
2023-04-03T22:28:26.868Z,8.40
2023-04-03T22:30:54.044Z,8.60
2023-04-03T22:33:20.530Z,8.50
2023-04-03T22:35:47.522Z,9.50
2023-04-03T22:38:14.860Z,9.30
2023-04-03T22:40:45.300Z,9.40
2023-04-03T22:43:12.103Z,11.40
2023-04-03T22:45:48.431Z,7.60
2023-04-03T22:48:15.862Z,8.60
2023-04-03T22:50:43.449Z,9.20
2023-04-03T22:53:10.489Z,8.20
2023-04-03T22:55:37.909Z,9.00
2023-04-03T22:58:05.063Z,7.50
2023-04-03T23:00:31.703Z,10.60
2023-04-03T23:02:58.380Z,9.40
2023-04-03T23:05:25.366Z,8.90
2023-04-03T23:07:51.852Z,8.90
2023-04-03T23:10:18.943Z,8.40
2023-04-03T23:12:45.774Z,10.40
2023-04-03T23:17:40.913Z,7.80
2023-04-03T23:20:08.623Z,9.10
2023-04-03T23:22:36.284Z,10.50
2023-04-03T23:25:02.903Z,11.20
2023-04-03T23:27:29.519Z,10.50
2023-04-03T23:29:56.401Z,11.80
2023-04-03T23:32:22.902Z,10.70
2023-04-03T23:34:49.406Z,11.80
2023-04-03T23:53:50.686Z,16.00
2023-04-03T23:56:18.355Z,15.90
2023-04-03T23:58:46.428Z,14.10
